sensor_id;sensor_type;location;lat;lon;timestamp;pressure;altitude;pressure_sealevel;temperature;humidity
71465;BME280;59274;49.874;9.154;2022-11-02T00:00:22;100962.66;;;7.46;100.00
71465;BME280;59274;49.874;9.154;2022-11-02T00:02:47;100942.94;;;7.46;100.00
71465;BME280;59274;49.874;9.154;2022-11-02T00:05:13;100946.91;;;7.48;100.00
71465;BME280;59274;49.874;9.154;2022-11-02T00:07:40;100946.78;;;7.45;100.00
71465;BME280;59274;49.874;9.154;2022-11-02T00:10:06;100943.63;;;7.43;100.00
71465;BME280;59274;49.874;9.154;2022-11-02T00:12:32;100939.91;;;7.47;100.00
71465;BME280;59274;49.874;9.154;2022-11-02T00:14:57;100941.25;;;7.41;100.00
71465;BME280;59274;49.874;9.154;2022-11-02T00:17:23;100935.03;;;7.41;100.00
71465;BME280;59274;49.874;9.154;2022-11-02T00:19:48;100940.78;;;7.39;100.00
71465;BME280;59274;49.874;9.154;2022-11-02T00:22:14;100946.06;;;7.36;100.00
71465;BME280;59274;49.874;9.154;2022-11-02T00:24:40;100937.09;;;7.44;100.00
71465;BME280;59274;49.874;9.154;2022-11-02T00:27:07;100932.56;;;7.36;100.00
71465;BME280;59274;49.874;9.154;2022-11-02T00:29:33;100937.19;;;7.35;100.00
71465;BME280;59274;49.874;9.154;2022-11-02T00:31:59;100936.28;;;7.31;100.00
71465;BME280;59274;49.874;9.154;2022-11-02T00:34:25;100937.03;;;7.32;100.00
71465;BME280;59274;49.874;9.154;2022-11-02T00:36:51;100941.22;;;7.29;100.00
71465;BME280;59274;49.874;9.154;2022-11-02T00:39:17;100943.44;;;7.27;100.00
71465;BME280;59274;49.874;9.154;2022-11-02T00:41:43;100945.91;;;7.20;100.00
71465;BME280;59274;49.874;9.154;2022-11-02T00:44:08;100947.69;;;7.16;100.00
71465;BME280;59274;49.874;9.154;2022-11-02T00:46:34;100948.13;;;7.18;100.00
71465;BME280;59274;49.874;9.154;2022-11-02T00:48:59;100947.47;;;7.21;100.00
71465;BME280;59274;49.874;9.154;2022-11-02T00:51:25;100955.44;;;7.18;100.00
71465;BME280;59274;49.874;9.154;2022-11-02T00:53:50;100949.28;;;7.17;100.00
71465;BME280;59274;49.874;9.154;2022-11-02T00:56:16;100949.78;;;7.11;100.00
71465;BME280;59274;49.874;9.154;2022-11-02T00:58:41;100937.53;;;7.13;100.00
71465;BME280;59274;49.874;9.154;2022-11-02T01:01:07;100933.72;;;7.14;100.00
71465;BME280;59274;49.874;9.154;2022-11-02T01:03:32;100926.53;;;7.18;100.00
71465;BME280;59274;49.874;9.154;2022-11-02T01:05:58;100931.91;;;7.18;100.00
71465;BME280;59274;49.874;9.154;2022-11-02T01:08:23;100922.34;;;7.08;100.00
71465;BME280;59274;49.874;9.154;2022-11-02T01:10:49;100926.72;;;7.13;100.00
71465;BME280;59274;49.874;9.154;2022-11-02T01:13:15;100926.88;;;7.17;100.00
71465;BME280;59274;49.874;9.154;2022-11-02T01:15:40;100921.47;;;7.17;100.00
71465;BME280;59274;49.874;9.154;2022-11-02T01:18:07;100932.28;;;7.17;100.00
71465;BME280;59274;49.874;9.154;2022-11-02T01:20:33;100923.03;;;7.18;100.00
71465;BME280;59274;49.874;9.154;2022-11-02T01:22:58;100920.31;;;7.18;100.00
71465;BME280;59274;49.874;9.154;2022-11-02T01:25:24;100925.88;;;7.21;100.00
71465;BME280;59274;49.874;9.154;2022-11-02T01:27:49;100920.69;;;7.16;100.00
71465;BME280;59274;49.874;9.154;2022-11-02T01:30:15;100919.03;;;7.24;100.00
71465;BME280;59274;49.874;9.154;2022-11-02T01:32:40;100917.44;;;7.23;100.00
71465;BME280;59274;49.874;9.154;2022-11-02T01:35:06;100912.38;;;7.21;100.00
71465;BME280;59274;49.874;9.154;2022-11-02T01:37:32;100909.59;;;7.30;100.00
71465;BME280;59274;49.874;9.154;2022-11-02T01:39:57;100916.09;;;7.29;100.00
71465;BME280;59274;49.874;9.154;2022-11-02T01:42:24;100915.78;;;7.30;100.00
71465;BME280;59274;49.874;9.154;2022-11-02T01:44:50;100912.16;;;7.26;100.00
71465;BME280;59274;49.874;9.154;2022-11-02T01:49:51;100909.69;;;7.33;100.00
71465;BME280;59274;49.874;9.154;2022-11-02T01:52:21;100906.56;;;7.31;100.00
71465;BME280;59274;49.874;9.154;2022-11-02T01:55:16;100921.84;;;7.27;100.00
71465;BME280;59274;49.874;9.154;2022-11-02T01:57:40;100915.31;;;7.28;100.00
71465;BME280;59274;49.874;9.154;2022-11-02T02:00:11;100911.72;;;7.24;100.00
71465;BME280;59274;49.874;9.154;2022-11-02T02:02:42;100920.56;;;7.25;100.00
71465;BME280;59274;49.874;9.154;2022-11-02T02:05:12;100925.41;;;7.19;100.00
71465;BME280;59274;49.874;9.154;2022-11-02T02:07:39;100920.69;;;7.16;100.00
71465;BME280;59274;49.874;9.154;2022-11-02T02:10:06;100918.38;;;7.06;100.00
71465;BME280;59274;49.874;9.154;2022-11-02T02:12:33;100921.88;;;7.06;100.00
71465;BME280;59274;49.874;9.154;2022-11-02T02:14:59;100923.00;;;7.05;100.00
71465;BME280;59274;49.874;9.154;2022-11-02T02:28:19;100901.78;;;7.16;100.00
71465;BME280;59274;49.874;9.154;2022-11-02T02:31:25;100911.00;;;7.15;100.00
71465;BME280;59274;49.874;9.154;2022-11-02T02:34:03;100899.63;;;7.10;100.00
71465;BME280;59274;49.874;9.154;2022-11-02T02:36:34;100906.56;;;7.11;100.00
71465;BME280;59274;49.874;9.154;2022-11-02T02:39:10;100903.75;;;7.07;100.00
71465;BME280;59274;49.874;9.154;2022-11-02T02:41:55;100897.97;;;7.17;100.00
71465;BME280;59274;49.874;9.154;2022-11-02T02:44:26;100887.81;;;7.14;100.00
71465;BME280;59274;49.874;9.154;2022-11-02T02:46:57;100886.38;;;7.17;100.00
71465;BME280;59274;49.874;9.154;2022-11-02T02:49:32;100878.69;;;7.19;100.00
71465;BME280;59274;49.874;9.154;2022-11-02T02:52:00;100880.72;;;7.10;100.00
71465;BME280;59274;49.874;9.154;2022-11-02T02:54:33;100879.00;;;7.05;100.00
71465;BME280;59274;49.874;9.154;2022-11-02T02:57:06;100881.69;;;7.05;100.00
71465;BME280;59274;49.874;9.154;2022-11-02T02:59:38;100880.47;;;7.02;100.00
71465;BME280;59274;49.874;9.154;2022-11-02T03:02:08;100869.97;;;7.01;100.00
71465;BME280;59274;49.874;9.154;2022-11-02T03:04:37;100867.41;;;7.04;100.00
71465;BME280;59274;49.874;9.154;2022-11-02T03:07:03;100865.47;;;7.05;100.00
71465;BME280;59274;49.874;9.154;2022-11-02T03:09:43;100866.59;;;7.04;100.00
71465;BME280;59274;49.874;9.154;2022-11-02T03:17:17;100863.25;;;7.07;100.00
71465;BME280;59274;49.874;9.154;2022-11-02T03:19:54;100868.75;;;7.11;100.00
71465;BME280;59274;49.874;9.154;2022-11-02T03:22:33;100872.38;;;7.15;100.00
71465;BME280;59274;49.874;9.154;2022-11-02T03:25:13;100870.84;;;7.26;100.00
71465;BME280;59274;49.874;9.154;2022-11-02T03:27:52;100880.41;;;7.23;100.00
71465;BME280;59274;49.874;9.154;2022-11-02T03:30:23;100878.16;;;7.25;100.00
71465;BME280;59274;49.874;9.154;2022-11-02T03:38:21;100872.97;;;7.32;100.00
71465;BME280;59274;49.874;9.154;2022-11-02T03:40:51;100883.00;;;7.32;100.00
71465;BME280;59274;49.874;9.154;2022-11-02T03:43:19;100883.34;;;7.30;100.00
71465;BME280;59274;49.874;9.154;2022-11-02T03:45:52;100882.56;;;7.30;100.00
71465;BME280;59274;49.874;9.154;2022-11-02T03:48:20;100880.53;;;7.27;100.00
71465;BME280;59274;49.874;9.154;2022-11-02T03:50:49;100875.13;;;7.27;100.00
71465;BME280;59274;49.874;9.154;2022-11-02T03:53:26;100859.47;;;7.20;100.00
71465;BME280;59274;49.874;9.154;2022-11-02T03:55:59;100871.19;;;7.24;100.00
71465;BME280;59274;49.874;9.154;2022-11-02T03:58:26;100868.50;;;7.24;100.00
71465;BME280;59274;49.874;9.154;2022-11-02T04:00:55;100876.38;;;7.29;100.00
71465;BME280;59274;49.874;9.154;2022-11-02T04:03:23;100882.31;;;7.23;100.00
71465;BME280;59274;49.874;9.154;2022-11-02T04:05:49;100887.59;;;7.19;100.00
71465;BME280;59274;49.874;9.154;2022-11-02T04:08:21;100887.25;;;7.21;100.00
71465;BME280;59274;49.874;9.154;2022-11-02T04:10:49;100880.84;;;7.25;100.00
71465;BME280;59274;49.874;9.154;2022-11-02T04:13:34;100888.06;;;7.33;100.00
71465;BME280;59274;49.874;9.154;2022-11-02T04:16:19;100896.75;;;7.39;100.00
71465;BME280;59274;49.874;9.154;2022-11-02T04:18:44;100888.94;;;7.58;100.00
71465;BME280;59274;49.874;9.154;2022-11-02T04:21:29;100893.31;;;7.63;100.00
71465;BME280;59274;49.874;9.154;2022-11-02T04:23:54;100900.53;;;7.71;100.00
71465;BME280;59274;49.874;9.154;2022-11-02T04:26:39;100901.66;;;7.82;100.00
71465;BME280;59274;49.874;9.154;2022-11-02T04:29:04;100916.91;;;7.86;100.00
71465;BME280;59274;49.874;9.154;2022-11-02T04:31:30;100919.59;;;7.86;100.00
71465;BME280;59274;49.874;9.154;2022-11-02T04:33:59;100919.72;;;7.90;100.00
71465;BME280;59274;49.874;9.154;2022-11-02T04:36:25;100919.84;;;7.94;100.00
71465;BME280;59274;49.874;9.154;2022-11-02T04:38:50;100926.28;;;8.01;100.00
71465;BME280;59274;49.874;9.154;2022-11-02T04:41:17;100927.06;;;8.14;100.00
71465;BME280;59274;49.874;9.154;2022-11-02T04:44:03;100929.97;;;8.21;100.00
71465;BME280;59274;49.874;9.154;2022-11-02T04:46:30;100933.25;;;8.26;100.00
71465;BME280;59274;49.874;9.154;2022-11-02T04:48:56;100936.41;;;8.29;100.00
71465;BME280;59274;49.874;9.154;2022-11-02T04:51:23;100926.72;;;8.27;100.00
71465;BME280;59274;49.874;9.154;2022-11-02T04:53:51;100929.78;;;8.38;100.00
71465;BME280;59274;49.874;9.154;2022-11-02T04:56:16;100937.44;;;8.48;100.00
71465;BME280;59274;49.874;9.154;2022-11-02T04:58:42;100930.66;;;8.54;100.00
71465;BME280;59274;49.874;9.154;2022-11-02T05:01:11;100940.34;;;8.55;100.00
71465;BME280;59274;49.874;9.154;2022-11-02T05:03:38;100936.84;;;8.55;100.00
71465;BME280;59274;49.874;9.154;2022-11-02T05:06:04;100939.19;;;8.69;100.00
71465;BME280;59274;49.874;9.154;2022-11-02T05:08:30;100931.09;;;8.56;100.00
71465;BME280;59274;49.874;9.154;2022-11-02T05:10:57;100926.47;;;8.57;100.00
71465;BME280;59274;49.874;9.154;2022-11-02T05:13:24;100936.97;;;8.58;100.00
71465;BME280;59274;49.874;9.154;2022-11-02T05:15:50;100923.53;;;8.62;100.00
71465;BME280;59274;49.874;9.154;2022-11-02T05:18:16;100928.28;;;8.65;100.00
71465;BME280;59274;49.874;9.154;2022-11-02T05:20:42;100923.06;;;8.60;100.00
71465;BME280;59274;49.874;9.154;2022-11-02T05:23:07;100927.25;;;8.70;100.00
71465;BME280;59274;49.874;9.154;2022-11-02T05:25:33;100925.66;;;8.69;100.00
71465;BME280;59274;49.874;9.154;2022-11-02T05:27:58;100927.94;;;8.67;100.00
71465;BME280;59274;49.874;9.154;2022-11-02T05:30:24;100941.91;;;8.69;100.00
71465;BME280;59274;49.874;9.154;2022-11-02T05:32:49;100946.97;;;8.70;100.00
71465;BME280;59274;49.874;9.154;2022-11-02T05:35:15;100952.84;;;8.72;100.00
71465;BME280;59274;49.874;9.154;2022-11-02T05:37:40;100956.34;;;8.73;100.00
71465;BME280;59274;49.874;9.154;2022-11-02T05:40:06;100954.19;;;8.78;100.00
71465;BME280;59274;49.874;9.154;2022-11-02T05:42:33;100958.16;;;8.81;100.00
71465;BME280;59274;49.874;9.154;2022-11-02T05:44:58;100969.31;;;8.79;100.00
71465;BME280;59274;49.874;9.154;2022-11-02T05:47:24;100965.13;;;8.82;100.00
71465;BME280;59274;49.874;9.154;2022-11-02T05:49:49;100963.66;;;8.84;100.00
71465;BME280;59274;49.874;9.154;2022-11-02T05:52:15;100969.63;;;8.90;100.00
71465;BME280;59274;49.874;9.154;2022-11-02T05:54:40;100970.94;;;8.96;100.00
71465;BME280;59274;49.874;9.154;2022-11-02T05:57:06;100972.75;;;9.04;100.00
71465;BME280;59274;49.874;9.154;2022-11-02T05:59:32;100969.94;;;9.00;100.00
71465;BME280;59274;49.874;9.154;2022-11-02T06:01:57;100971.06;;;8.99;100.00
71465;BME280;59274;49.874;9.154;2022-11-02T06:04:22;100976.47;;;8.99;100.00
71465;BME280;59274;49.874;9.154;2022-11-02T06:06:48;100973.78;;;8.99;100.00
71465;BME280;59274;49.874;9.154;2022-11-02T06:09:13;100983.50;;;9.00;100.00
71465;BME280;59274;49.874;9.154;2022-11-02T06:11:39;100986.41;;;8.95;100.00
71465;BME280;59274;49.874;9.154;2022-11-02T06:14:04;100981.69;;;8.92;100.00
71465;BME280;59274;49.874;9.154;2022-11-02T06:16:29;100989.50;;;8.94;100.00
71465;BME280;59274;49.874;9.154;2022-11-02T06:18:55;100995.91;;;9.01;100.00
71465;BME280;59274;49.874;9.154;2022-11-02T06:21:21;101003.66;;;9.03;100.00
71465;BME280;59274;49.874;9.154;2022-11-02T06:23:47;101004.81;;;9.02;100.00
71465;BME280;59274;49.874;9.154;2022-11-02T06:26:12;101013.72;;;9.02;100.00
71465;BME280;59274;49.874;9.154;2022-11-02T06:28:40;101014.88;;;9.01;100.00
71465;BME280;59274;49.874;9.154;2022-11-02T06:31:06;101027.84;;;9.08;100.00
71465;BME280;59274;49.874;9.154;2022-11-02T06:33:31;101026.34;;;9.11;100.00
71465;BME280;59274;49.874;9.154;2022-11-02T06:35:58;101029.19;;;9.14;100.00
71465;BME280;59274;49.874;9.154;2022-11-02T06:38:24;101024.41;;;9.23;100.00
71465;BME280;59274;49.874;9.154;2022-11-02T06:40:54;101031.97;;;9.30;100.00
71465;BME280;59274;49.874;9.154;2022-11-02T06:43:19;101033.75;;;9.26;100.00
71465;BME280;59274;49.874;9.154;2022-11-02T06:45:45;101024.50;;;9.27;100.00
71465;BME280;59274;49.874;9.154;2022-11-02T06:48:11;101029.25;;;9.30;100.00
71465;BME280;59274;49.874;9.154;2022-11-02T06:50:36;101035.88;;;9.32;100.00
71465;BME280;59274;49.874;9.154;2022-11-02T06:53:02;101040.72;;;9.39;100.00
71465;BME280;59274;49.874;9.154;2022-11-02T06:55:27;101042.25;;;9.52;100.00
71465;BME280;59274;49.874;9.154;2022-11-02T06:57:53;101043.03;;;9.53;100.00
71465;BME280;59274;49.874;9.154;2022-11-02T07:00:19;101047.00;;;9.55;100.00
71465;BME280;59274;49.874;9.154;2022-11-02T07:02:45;101058.84;;;9.63;100.00
71465;BME280;59274;49.874;9.154;2022-11-02T07:05:11;101055.06;;;9.67;100.00
71465;BME280;59274;49.874;9.154;2022-11-02T07:07:36;101058.34;;;9.73;100.00
71465;BME280;59274;49.874;9.154;2022-11-02T07:10:02;101065.31;;;9.74;100.00
71465;BME280;59274;49.874;9.154;2022-11-02T07:12:31;101074.22;;;9.87;100.00
71465;BME280;59274;49.874;9.154;2022-11-02T07:14:57;101071.25;;;10.19;100.00
71465;BME280;59274;49.874;9.154;2022-11-02T07:17:22;101064.06;;;10.43;100.00
71465;BME280;59274;49.874;9.154;2022-11-02T07:19:48;101067.31;;;10.48;100.00
71465;BME280;59274;49.874;9.154;2022-11-02T07:22:13;101057.41;;;10.56;100.00
71465;BME280;59274;49.874;9.154;2022-11-02T07:24:41;101072.22;;;10.58;100.00
71465;BME280;59274;49.874;9.154;2022-11-02T07:27:06;101078.97;;;10.65;98.24
71465;BME280;59274;49.874;9.154;2022-11-02T07:29:32;101082.66;;;10.72;96.69
71465;BME280;59274;49.874;9.154;2022-11-02T07:31:57;101082.25;;;10.89;92.82
71465;BME280;59274;49.874;9.154;2022-11-02T07:34:22;101088.38;;;11.02;93.30
71465;BME280;59274;49.874;9.154;2022-11-02T07:36:48;101090.72;;;11.04;92.33
71465;BME280;59274;49.874;9.154;2022-11-02T07:39:13;101091.41;;;11.16;90.69
71465;BME280;59274;49.874;9.154;2022-11-02T07:41:39;101093.78;;;11.18;91.50
71465;BME280;59274;49.874;9.154;2022-11-02T07:44:04;101102.44;;;11.23;90.93
71465;BME280;59274;49.874;9.154;2022-11-02T07:46:30;101098.66;;;11.28;90.13
71465;BME280;59274;49.874;9.154;2022-11-02T07:48:56;101107.25;;;11.30;91.18
71465;BME280;59274;49.874;9.154;2022-11-02T07:51:22;101106.56;;;11.17;93.21
71465;BME280;59274;49.874;9.154;2022-11-02T07:53:48;101111.28;;;11.01;95.71
71465;BME280;59274;49.874;9.154;2022-11-02T07:56:13;101109.88;;;10.91;95.52
71465;BME280;59274;49.874;9.154;2022-11-02T07:58:39;101114.88;;;10.89;95.41
71465;BME280;59274;49.874;9.154;2022-11-02T08:01:04;101117.13;;;10.87;93.77
71465;BME280;59274;49.874;9.154;2022-11-02T08:03:30;101119.09;;;10.87;94.82
71465;BME280;59274;49.874;9.154;2022-11-02T08:05:55;101111.00;;;10.90;95.96
71465;BME280;59274;49.874;9.154;2022-11-02T08:08:22;101121.25;;;10.97;94.86
71465;BME280;59274;49.874;9.154;2022-11-02T08:10:50;101119.47;;;11.20;91.95
71465;BME280;59274;49.874;9.154;2022-11-02T08:13:20;101126.03;;;11.54;89.66
71465;BME280;59274;49.874;9.154;2022-11-02T08:15:53;101127.75;;;11.78;87.86
71465;BME280;59274;49.874;9.154;2022-11-02T08:18:23;101126.75;;;11.86;88.67
71465;BME280;59274;49.874;9.154;2022-11-02T08:20:50;101134.81;;;12.02;86.46
71465;BME280;59274;49.874;9.154;2022-11-02T08:23:17;101144.69;;;12.10;85.15
71465;BME280;59274;49.874;9.154;2022-11-02T08:25:46;101140.13;;;12.14;85.02
71465;BME280;59274;49.874;9.154;2022-11-02T08:28:15;101148.59;;;12.32;84.44
71465;BME280;59274;49.874;9.154;2022-11-02T08:30:41;101149.09;;;12.37;83.30
71465;BME280;59274;49.874;9.154;2022-11-02T08:33:09;101143.84;;;12.48;82.34
71465;BME280;59274;49.874;9.154;2022-11-02T08:35:38;101141.97;;;12.52;83.29
71465;BME280;59274;49.874;9.154;2022-11-02T08:38:04;101159.53;;;12.54;81.86
71465;BME280;59274;49.874;9.154;2022-11-02T08:40:31;101138.53;;;12.55;82.32
71465;BME280;59274;49.874;9.154;2022-11-02T08:43:01;101149.06;;;12.57;82.71
71465;BME280;59274;49.874;9.154;2022-11-02T08:45:28;101145.66;;;12.63;82.83
71465;BME280;59274;49.874;9.154;2022-11-02T08:47:54;101153.91;;;12.67;80.60
71465;BME280;59274;49.874;9.154;2022-11-02T08:50:23;101153.97;;;12.70;80.80
71465;BME280;59274;49.874;9.154;2022-11-02T08:52:49;101155.56;;;12.71;80.73
71465;BME280;59274;49.874;9.154;2022-11-02T08:55:15;101149.78;;;12.76;80.24
71465;BME280;59274;49.874;9.154;2022-11-02T08:57:50;101152.94;;;12.78;80.29
71465;BME280;59274;49.874;9.154;2022-11-02T09:00:19;101154.56;;;12.83;79.39
71465;BME280;59274;49.874;9.154;2022-11-02T09:03:10;101155.09;;;12.92;80.32
71465;BME280;59274;49.874;9.154;2022-11-02T09:05:38;101165.63;;;12.93;78.51
71465;BME280;59274;49.874;9.154;2022-11-02T09:08:05;101150.91;;;12.98;77.17
71465;BME280;59274;49.874;9.154;2022-11-02T09:10:34;101153.66;;;12.98;78.32
71465;BME280;59274;49.874;9.154;2022-11-02T09:13:02;101155.59;;;12.98;77.46
71465;BME280;59274;49.874;9.154;2022-11-02T09:15:29;101160.69;;;12.99;78.15
71465;BME280;59274;49.874;9.154;2022-11-02T09:17:55;101148.22;;;13.02;76.33
71465;BME280;59274;49.874;9.154;2022-11-02T09:20:21;101142.50;;;13.07;76.62
71465;BME280;59274;49.874;9.154;2022-11-02T09:22:47;101144.91;;;13.12;76.51
71465;BME280;59274;49.874;9.154;2022-11-02T09:25:13;101147.63;;;13.12;75.99
71465;BME280;59274;49.874;9.154;2022-11-02T09:27:40;101143.53;;;13.21;75.50
71465;BME280;59274;49.874;9.154;2022-11-02T09:30:07;101151.69;;;13.21;75.04
71465;BME280;59274;49.874;9.154;2022-11-02T09:32:32;101151.75;;;13.25;74.60
71465;BME280;59274;49.874;9.154;2022-11-02T09:35:03;101149.13;;;13.32;74.44
71465;BME280;59274;49.874;9.154;2022-11-02T09:37:30;101149.66;;;13.41;72.10
71465;BME280;59274;49.874;9.154;2022-11-02T09:39:56;101155.13;;;13.45;72.91
71465;BME280;59274;49.874;9.154;2022-11-02T09:42:26;101159.44;;;13.46;71.23
71465;BME280;59274;49.874;9.154;2022-11-02T09:44:58;101155.66;;;13.54;71.83
71465;BME280;59274;49.874;9.154;2022-11-02T09:47:26;101159.63;;;13.60;72.16
71465;BME280;59274;49.874;9.154;2022-11-02T09:49:54;101152.59;;;13.59;70.75
71465;BME280;59274;49.874;9.154;2022-11-02T09:52:31;101159.63;;;13.60;71.81
71465;BME280;59274;49.874;9.154;2022-11-02T09:55:04;101165.97;;;13.67;70.18
71465;BME280;59274;49.874;9.154;2022-11-02T09:57:34;101178.47;;;13.68;68.62
71465;BME280;59274;49.874;9.154;2022-11-02T10:00:00;101161.03;;;13.77;68.84
71465;BME280;59274;49.874;9.154;2022-11-02T10:05:25;101167.22;;;13.73;67.20
71465;BME280;59274;49.874;9.154;2022-11-02T10:10:45;101171.00;;;13.65;67.55
71465;BME280;59274;49.874;9.154;2022-11-02T10:13:43;101171.91;;;13.73;66.46
71465;BME280;59274;49.874;9.154;2022-11-02T10:16:20;101167.31;;;13.81;67.08
71465;BME280;59274;49.874;9.154;2022-11-02T10:18:48;101165.81;;;13.87;68.17
71465;BME280;59274;49.874;9.154;2022-11-02T10:21:20;101175.31;;;13.96;67.29
71465;BME280;59274;49.874;9.154;2022-11-02T10:23:49;101166.09;;;14.08;66.75
71465;BME280;59274;49.874;9.154;2022-11-02T10:26:22;101163.78;;;14.10;66.29
71465;BME280;59274;49.874;9.154;2022-11-02T10:28:58;101174.25;;;14.04;67.07
71465;BME280;59274;49.874;9.154;2022-11-02T10:31:27;101186.59;;;13.95;65.74
71465;BME280;59274;49.874;9.154;2022-11-02T10:33:55;101174.44;;;13.89;66.73
71465;BME280;59274;49.874;9.154;2022-11-02T10:36:46;101172.50;;;13.89;66.33
71465;BME280;59274;49.874;9.154;2022-11-02T10:39:45;101181.56;;;13.97;67.32
71465;BME280;59274;49.874;9.154;2022-11-02T10:45:33;101191.47;;;14.08;64.28
71465;BME280;59274;49.874;9.154;2022-11-02T10:53:43;101178.75;;;14.23;63.70
71465;BME280;59274;49.874;9.154;2022-11-02T10:59:28;101186.41;;;14.44;63.17
71465;BME280;59274;49.874;9.154;2022-11-02T11:01:30;101185.84;;;14.65;62.66
71465;BME280;59274;49.874;9.154;2022-11-02T11:04:02;101183.09;;;14.65;61.66
71465;BME280;59274;49.874;9.154;2022-11-02T11:06:39;101180.56;;;14.82;61.87
71465;BME280;59274;49.874;9.154;2022-11-02T11:11:36;101174.72;;;14.87;61.85
71465;BME280;59274;49.874;9.154;2022-11-02T11:14:05;101180.91;;;14.81;59.37
71465;BME280;59274;49.874;9.154;2022-11-02T11:16:46;101171.06;;;14.73;60.94
71465;BME280;59274;49.874;9.154;2022-11-02T11:21:42;101164.44;;;14.70;60.71
71465;BME280;59274;49.874;9.154;2022-11-02T11:24:37;101166.63;;;14.98;60.69
71465;BME280;59274;49.874;9.154;2022-11-02T11:29:41;101175.38;;;15.21;59.17
71465;BME280;59274;49.874;9.154;2022-11-02T11:32:26;101177.56;;;15.53;59.00
71465;BME280;59274;49.874;9.154;2022-11-02T11:37:20;101163.91;;;15.63;58.07
71465;BME280;59274;49.874;9.154;2022-11-02T11:39:50;101161.16;;;15.56;55.13
71465;BME280;59274;49.874;9.154;2022-11-02T11:42:22;101164.22;;;15.48;56.52
71465;BME280;59274;49.874;9.154;2022-11-02T11:45:51;101163.91;;;15.60;56.68
71465;BME280;59274;49.874;9.154;2022-11-02T11:47:53;101155.59;;;15.49;55.51
71465;BME280;59274;49.874;9.154;2022-11-02T11:50:19;101146.59;;;15.49;55.87
71465;BME280;59274;49.874;9.154;2022-11-02T11:52:46;101142.66;;;15.43;57.01
71465;BME280;59274;49.874;9.154;2022-11-02T11:55:28;101134.97;;;15.59;55.25
71465;BME280;59274;49.874;9.154;2022-11-02T12:06:24;101133.56;;;15.97;54.49
71465;BME280;59274;49.874;9.154;2022-11-02T12:12:09;101137.88;;;16.01;52.18
71465;BME280;59274;49.874;9.154;2022-11-02T12:22:59;101137.25;;;16.75;51.67
71465;BME280;59274;49.874;9.154;2022-11-02T12:41:49;101120.75;;;17.04;46.58
71465;BME280;59274;49.874;9.154;2022-11-02T12:47:22;101119.59;;;17.01;48.07
71465;BME280;59274;49.874;9.154;2022-11-02T12:50:20;101115.63;;;17.13;47.98
71465;BME280;59274;49.874;9.154;2022-11-02T12:52:58;101110.94;;;17.06;48.42
71465;BME280;59274;49.874;9.154;2022-11-02T12:55:36;101108.97;;;17.14;49.93
71465;BME280;59274;49.874;9.154;2022-11-02T12:58:09;101108.63;;;16.98;49.39
71465;BME280;59274;49.874;9.154;2022-11-02T13:00:39;101118.38;;;17.23;48.52
71465;BME280;59274;49.874;9.154;2022-11-02T13:06:10;101112.03;;;17.41;48.54
71465;BME280;59274;49.874;9.154;2022-11-02T13:09:06;101114.03;;;17.40;48.49
71465;BME280;59274;49.874;9.154;2022-11-02T13:11:45;101113.25;;;17.29;47.42
71465;BME280;59274;49.874;9.154;2022-11-02T13:14:17;101115.28;;;17.04;47.86
71465;BME280;59274;49.874;9.154;2022-11-02T13:16:54;101127.81;;;17.05;48.17
71465;BME280;59274;49.874;9.154;2022-11-02T13:19:38;101117.16;;;17.28;48.99
71465;BME280;59274;49.874;9.154;2022-11-02T13:22:08;101102.31;;;17.15;49.11
71465;BME280;59274;49.874;9.154;2022-11-02T13:24:41;101082.25;;;17.39;49.45
71465;BME280;59274;49.874;9.154;2022-11-02T13:27:28;101110.50;;;17.40;49.49
71465;BME280;59274;49.874;9.154;2022-11-02T13:29:58;101112.09;;;17.23;49.34
71465;BME280;59274;49.874;9.154;2022-11-02T13:32:35;101104.59;;;17.38;47.73
71465;BME280;59274;49.874;9.154;2022-11-02T13:35:19;101110.84;;;17.52;49.59
71465;BME280;59274;49.874;9.154;2022-11-02T13:37:50;101111.13;;;17.83;47.71
71465;BME280;59274;49.874;9.154;2022-11-02T13:45:46;101111.91;;;17.83;47.78
71465;BME280;59274;49.874;9.154;2022-11-02T13:50:54;101102.94;;;17.76;48.46
71465;BME280;59274;49.874;9.154;2022-11-02T13:53:28;101100.50;;;17.88;47.97
71465;BME280;59274;49.874;9.154;2022-11-02T13:55:58;101096.63;;;17.82;46.43
71465;BME280;59274;49.874;9.154;2022-11-02T13:58:26;101100.06;;;17.97;47.17
71465;BME280;59274;49.874;9.154;2022-11-02T14:01:00;101093.47;;;17.77;47.76
71465;BME280;59274;49.874;9.154;2022-11-02T14:06:12;101083.19;;;17.95;48.89
71465;BME280;59274;49.874;9.154;2022-11-02T14:08:40;101089.50;;;17.85;47.80
71465;BME280;59274;49.874;9.154;2022-11-02T14:19:22;101078.19;;;18.34;46.60
71465;BME280;59274;49.874;9.154;2022-11-02T14:26:57;101076.34;;;18.24;45.64
71465;BME280;59274;49.874;9.154;2022-11-02T14:43:12;101084.22;;;17.32;45.31
71465;BME280;59274;49.874;9.154;2022-11-02T14:49:01;101085.94;;;17.95;45.32
71465;BME280;59274;49.874;9.154;2022-11-02T14:51:30;101092.88;;;18.17;43.92
71465;BME280;59274;49.874;9.154;2022-11-02T14:54:17;101090.72;;;18.46;43.57
71465;BME280;59274;49.874;9.154;2022-11-02T14:57:06;101089.78;;;18.63;43.68
71465;BME280;59274;49.874;9.154;2022-11-02T14:59:44;101085.16;;;18.53;43.43
71465;BME280;59274;49.874;9.154;2022-11-02T15:04:54;101076.00;;;18.15;46.46
71465;BME280;59274;49.874;9.154;2022-11-02T15:10:03;101075.47;;;17.69;47.60
71465;BME280;59274;49.874;9.154;2022-11-02T15:15:01;101085.13;;;16.82;51.51
71465;BME280;59274;49.874;9.154;2022-11-02T15:18:12;101085.06;;;16.19;54.68
71465;BME280;59274;49.874;9.154;2022-11-02T15:22:47;101084.03;;;15.51;57.12
71465;BME280;59274;49.874;9.154;2022-11-02T15:25:52;101078.38;;;15.12;59.76
71465;BME280;59274;49.874;9.154;2022-11-02T15:28:13;101077.03;;;14.84;58.21